Time;durP1;ratioP1;P1;durP2;ratioP2;P2;SDS_P1;SDS_P2;PMS_P1;PMS_P2;Temp;Humidity;BMP_temperature;BMP_pressure;BME280_temperature;BME280_humidity;BME280_pressure;Samples;Min_cycle;Max_cycle;Signal;HPM_P1;HPM_P2
2023/03/25 00:01:12;;;;;;;;;1.25;1.25;;;;;;;;5050092;28;49819;-72
2023/03/25 00:03:40;;;;;;;;;0.00;0.00;;;;;;;;5031578;28;49665;-72
2023/03/25 00:06:06;;;;;;;;;1.00;1.00;;;;;;;;5050518;28;49708;-72
2023/03/25 00:08:31;;;;;;;;;4.00;1.00;;;;;;;;5031802;28;52187;-72
2023/03/25 00:10:58;;;;;;;;;3.50;3.00;;;;;;;;5050036;28;49700;-72
2023/03/25 00:13:24;;;;;;;;;1.00;0.00;;;;;;;;5050090;28;49772;-72
2023/03/25 00:15:52;;;;;;;;;0.00;0.00;;;;;;;;5050346;28;50139;-72
2023/03/25 00:18:18;;;;;;;;;1.25;0.25;;;;;;;;5049941;28;49727;-72
2023/03/25 00:20:44;;;;;;;;;0.00;0.00;;;;;;;;5049945;28;49804;-72
2023/03/25 00:23:10;;;;;;;;;2.25;1.00;;;;;;;;5050129;28;50234;-72
2023/03/25 00:25:35;;;;;;;;;1.00;1.00;;;;;;;;5050226;28;49844;-72
2023/03/25 00:28:00;;;;;;;;;2.00;0.00;;;;;;;;5049893;28;49764;-72
2023/03/25 00:30:25;;;;;;;;;1.75;1.50;;;;;;;;5048641;28;49729;-71
2023/03/25 00:32:51;;;;;;;;;2.25;1.75;;;;;;;;5024515;28;50062;-73
2023/03/25 00:35:20;;;;;;;;;1.50;1.00;;;;;;;;5011922;28;50506;-72
2023/03/25 00:37:46;;;;;;;;;3.00;2.00;;;;;;;;5029402;28;51338;-72
2023/03/25 00:40:12;;;;;;;;;1.00;1.00;;;;;;;;5029542;28;49918;-72
2023/03/25 00:42:48;;;;;;;;;1.50;1.50;;;;;;;;5029459;28;50134;-72
2023/03/25 00:45:14;;;;;;;;;0.75;0.50;;;;;;;;5029653;28;49829;-72
2023/03/25 00:47:40;;;;;;;;;1.25;0.00;;;;;;;;5029360;28;50264;-72
2023/03/25 00:50:05;;;;;;;;;0.50;0.50;;;;;;;;5029613;28;49810;-72
2023/03/25 00:52:30;;;;;;;;;3.00;0.25;;;;;;;;5029274;28;50078;-71
2023/03/25 00:54:56;;;;;;;;;2.75;0.75;;;;;;;;5029789;28;49774;-72
2023/03/25 00:57:21;;;;;;;;;2.75;2.00;;;;;;;;5028205;28;49845;-72
2023/03/25 00:59:46;;;;;;;;;2.50;1.25;;;;;;;;5028983;28;49875;-72
2023/03/25 01:02:11;;;;;;;;;4.00;3.00;;;;;;;;5029206;28;50000;-72
2023/03/25 01:04:38;;;;;;;;;1.00;1.00;;;;;;;;5028467;28;50496;-72
2023/03/25 01:07:03;;;;;;;;;4.00;1.75;;;;;;;;5029148;28;50314;-72
2023/03/25 01:09:28;;;;;;;;;3.00;1.00;;;;;;;;5029235;28;49730;-72
2023/03/25 01:11:53;;;;;;;;;5.25;2.00;;;;;;;;5029527;28;49695;-72
2023/03/25 01:14:20;;;;;;;;;1.50;1.50;;;;;;;;5029296;28;49763;-72
2023/03/25 01:16:45;;;;;;;;;1.00;1.00;;;;;;;;5029049;28;50429;-72
2023/03/25 01:19:10;;;;;;;;;5.25;1.00;;;;;;;;5028979;28;49721;-72
2023/03/25 01:21:36;;;;;;;;;5.00;2.50;;;;;;;;5028131;28;49835;-72
2023/03/25 01:24:02;;;;;;;;;3.00;2.00;;;;;;;;5029390;28;49995;-72
2023/03/25 01:26:27;;;;;;;;;3.50;2.00;;;;;;;;5028762;28;51401;-72
2023/03/25 01:28:52;;;;;;;;;2.50;0.50;;;;;;;;5028864;28;49725;-72
2023/03/25 01:31:18;;;;;;;;;1.00;1.00;;;;;;;;5029113;28;49834;-72
2023/03/25 01:33:43;;;;;;;;;1.00;0.00;;;;;;;;5042963;28;49924;-72
2023/03/25 01:36:11;;;;;;;;;3.25;1.50;;;;;;;;5030254;28;49963;-72
2023/03/25 01:38:36;;;;;;;;;3.00;1.00;;;;;;;;5048789;28;50080;-73
2023/03/25 01:41:02;;;;;;;;;7.75;3.00;;;;;;;;5049003;28;49724;-72
2023/03/25 01:43:27;;;;;;;;;2.50;0.25;;;;;;;;5030845;28;49840;-72
2023/03/25 01:45:53;;;;;;;;;3.00;0.00;;;;;;;;5028880;28;50065;-72
2023/03/25 01:48:23;;;;;;;;;2.00;2.00;;;;;;;;5028688;28;49765;-73
2023/03/25 01:50:51;;;;;;;;;0.00;0.00;;;;;;;;5028952;28;49951;-72
2023/03/25 01:53:17;;;;;;;;;1.25;1.00;;;;;;;;5028943;28;50058;-73
2023/03/25 01:56:01;;;;;;;;;4.25;1.75;;;;;;;;5364423;22;50884;-70
2023/03/25 01:58:27;;;;;;;;;1.50;1.50;;;;;;;;5061313;22;49749;-76
2023/03/25 02:00:53;;;;;;;;;2.75;1.25;;;;;;;;5046252;28;50075;-75
2023/03/25 02:03:20;;;;;;;;;1.00;1.00;;;;;;;;5047378;28;49819;-76
2023/03/25 02:06:04;;;;;;;;;1.00;0.75;;;;;;;;5047384;28;50047;-76
2023/03/25 02:08:31;;;;;;;;;3.50;2.00;;;;;;;;5035609;28;49700;-76
2023/03/25 02:10:57;;;;;;;;;2.00;2.00;;;;;;;;5027992;28;49776;-75
2023/03/25 02:13:22;;;;;;;;;3.00;1.75;;;;;;;;5029248;28;49737;-75
2023/03/25 02:16:09;;;;;;;;;3.00;1.00;;;;;;;;5031110;28;49901;-76
2023/03/25 02:18:44;;;;;;;;;2.75;2.75;;;;;;;;5030835;28;49682;-76
2023/03/25 02:21:09;;;;;;;;;3.25;3.25;;;;;;;;5046996;28;49654;-75
2023/03/25 02:24:04;;;;;;;;;3.00;1.25;;;;;;;;5051185;28;50019;-75
2023/03/25 02:26:48;;;;;;;;;5.50;1.00;;;;;;;;5032991;28;50532;-75
2023/03/25 02:29:25;;;;;;;;;3.75;2.00;;;;;;;;5050206;28;49974;-75
2023/03/25 02:31:50;;;;;;;;;3.00;1.50;;;;;;;;5050225;28;50020;-75
2023/03/25 02:34:25;;;;;;;;;4.75;2.75;;;;;;;;5050961;28;49626;-75
2023/03/25 02:37:02;;;;;;;;;3.00;1.00;;;;;;;;5050982;28;50511;-75
2023/03/25 02:39:39;;;;;;;;;4.00;2.00;;;;;;;;5050346;28;50132;-75
2023/03/25 02:42:23;;;;;;;;;3.00;2.00;;;;;;;;5051454;28;49900;-75
2023/03/25 02:44:58;;;;;;;;;2.00;1.00;;;;;;;;5051277;28;49751;-75
2023/03/25 02:47:26;;;;;;;;;3.00;2.00;;;;;;;;5050601;28;50961;-76
2023/03/25 02:49:54;;;;;;;;;1.00;1.00;;;;;;;;5051077;28;49784;-76
2023/03/25 02:52:23;;;;;;;;;3.50;1.25;;;;;;;;5050818;28;49875;-76
2023/03/25 02:54:50;;;;;;;;;3.00;1.00;;;;;;;;5051171;28;50082;-76
2023/03/25 02:57:17;;;;;;;;;3.25;0.75;;;;;;;;5037119;28;50053;-77
2023/03/25 02:59:44;;;;;;;;;4.00;4.00;;;;;;;;5030217;28;50096;-76
2023/03/25 03:02:10;;;;;;;;;3.25;2.25;;;;;;;;5029981;28;49821;-75
2023/03/25 03:04:48;;;;;;;;;7.00;1.50;;;;;;;;5030904;28;50110;-75
2023/03/25 03:07:25;;;;;;;;;5.25;3.25;;;;;;;;5029597;28;50189;-77
2023/03/25 03:09:53;;;;;;;;;2.00;2.00;;;;;;;;5030670;28;49792;-77
2023/03/25 03:12:48;;;;;;;;;2.75;1.00;;;;;;;;5030895;28;50241;-77
2023/03/25 03:15:22;;;;;;;;;6.00;3.00;;;;;;;;5013159;28;49999;-77
2023/03/25 03:17:56;;;;;;;;;3.00;1.50;;;;;;;;5030144;28;49806;-75
2023/03/25 03:20:36;;;;;;;;;1.75;1.75;;;;;;;;5030389;28;49856;-77
2023/03/25 03:23:01;;;;;;;;;3.75;1.00;;;;;;;;5030290;28;49595;-77
2023/03/25 03:25:32;;;;;;;;;1.40;0.40;;;;;;;;5030618;28;50056;-77
2023/03/25 03:28:04;;;;;;;;;3.25;1.25;;;;;;;;5030270;28;51569;-77
2023/03/25 03:30:38;;;;;;;;;1.25;0.50;;;;;;;;5030511;28;50035;-77
2023/03/25 03:33:24;;;;;;;;;4.00;1.75;;;;;;;;5030497;28;50136;-77
2023/03/25 03:35:57;;;;;;;;;2.00;2.00;;;;;;;;5030055;28;49974;-75
2023/03/25 03:38:24;;;;;;;;;1.00;1.00;;;;;;;;5029288;28;50534;-75
2023/03/25 03:40:53;;;;;;;;;1.00;1.00;;;;;;;;5030042;28;50069;-75
2023/03/25 03:43:27;;;;;;;;;2.00;2.00;;;;;;;;5030104;28;50116;-77
2023/03/25 03:45:57;;;;;;;;;2.75;1.50;;;;;;;;5030517;28;49742;-78
2023/03/25 03:48:24;;;;;;;;;1.00;1.00;;;;;;;;5028985;28;49956;-77
2023/03/25 03:50:53;;;;;;;;;2.25;1.75;;;;;;;;5030160;28;50110;-78
2023/03/25 03:53:22;;;;;;;;;0.00;0.00;;;;;;;;5030020;28;49999;-76
2023/03/25 03:56:02;;;;;;;;;1.50;0.00;;;;;;;;5030843;28;50037;-77
2023/03/25 03:58:33;;;;;;;;;1.75;1.75;;;;;;;;5049859;28;50725;-77
2023/03/25 04:01:08;;;;;;;;;1.00;1.00;;;;;;;;5049917;28;49672;-77
2023/03/25 04:03:37;;;;;;;;;2.25;1.25;;;;;;;;5049694;28;49823;-77
2023/03/25 04:06:08;;;;;;;;;1.00;1.00;;;;;;;;5032037;28;50085;-78
2023/03/25 04:08:37;;;;;;;;;1.00;1.00;;;;;;;;5049641;28;49928;-77
2023/03/25 04:11:09;;;;;;;;;2.25;1.00;;;;;;;;5049335;28;50187;-77
2023/03/25 04:13:36;;;;;;;;;1.50;1.50;;;;;;;;5049873;28;49887;-77
2023/03/25 04:16:02;;;;;;;;;1.00;1.00;;;;;;;;5050098;28;49864;-77
2023/03/25 04:18:27;;;;;;;;;2.50;2.25;;;;;;;;5048777;28;50507;-77
2023/03/25 04:20:53;;;;;;;;;1.25;1.25;;;;;;;;5049686;28;50064;-77
2023/03/25 04:23:18;;;;;;;;;2.50;0.00;;;;;;;;5049125;28;49724;-76
2023/03/25 04:25:48;;;;;;;;;1.75;0.00;;;;;;;;5049966;28;49687;-77
2023/03/25 04:28:16;;;;;;;;;2.00;0.75;;;;;;;;5049589;28;51526;-76
2023/03/25 04:30:44;;;;;;;;;2.00;2.00;;;;;;;;5049525;28;50105;-77
2023/03/25 04:33:09;;;;;;;;;2.00;1.00;;;;;;;;5049443;28;49690;-76
2023/03/25 04:35:34;;;;;;;;;1.00;0.00;;;;;;;;5049071;28;50066;-77
2023/03/25 04:38:00;;;;;;;;;2.00;2.00;;;;;;;;5049154;28;50458;-76
2023/03/25 04:40:25;;;;;;;;;3.00;1.25;;;;;;;;5049263;28;49992;-77
2023/03/25 04:42:52;;;;;;;;;0.00;0.00;;;;;;;;5049282;28;49713;-77
2023/03/25 04:45:17;;;;;;;;;1.50;0.00;;;;;;;;5049292;28;49673;-77
2023/03/25 04:47:46;;;;;;;;;1.25;1.25;;;;;;;;5048662;28;50860;-77
2023/03/25 04:50:38;;;;;;;;;0.00;0.00;;;;;;;;5049231;28;49965;-77
2023/03/25 04:53:03;;;;;;;;;2.00;2.00;;;;;;;;5045009;28;50082;-77
2023/03/25 04:55:28;;;;;;;;;0.00;0.00;;;;;;;;5049647;28;50429;-77
2023/03/25 04:57:54;;;;;;;;;0.25;0.25;;;;;;;;5030674;28;50116;-78
2023/03/25 05:00:21;;;;;;;;;1.25;0.25;;;;;;;;5028366;28;49780;-77
2023/03/25 05:02:47;;;;;;;;;1.00;0.00;;;;;;;;5029165;28;49809;-77
2023/03/25 05:05:17;;;;;;;;;1.25;1.25;;;;;;;;5028310;28;50094;-77
2023/03/25 05:07:44;;;;;;;;;0.00;0.00;;;;;;;;5028376;28;50894;-77
2023/03/25 05:10:10;;;;;;;;;0.00;0.00;;;;;;;;5047945;28;50022;-77
2023/03/25 05:12:35;;;;;;;;;4.00;2.50;;;;;;;;5048058;28;49686;-77
2023/03/25 05:15:00;;;;;;;;;0.00;0.00;;;;;;;;5049085;28;50031;-77
2023/03/25 05:17:25;;;;;;;;;2.00;1.25;;;;;;;;5030214;28;51658;-76
2023/03/25 05:19:51;;;;;;;;;1.75;1.25;;;;;;;;5047112;28;49808;-76
2023/03/25 05:22:16;;;;;;;;;3.00;1.25;;;;;;;;5048713;28;49717;-77
2023/03/25 05:24:44;;;;;;;;;0.00;0.00;;;;;;;;5048728;28;49692;-77
2023/03/25 05:27:09;;;;;;;;;1.25;1.25;;;;;;;;5048024;28;49708;-77
2023/03/25 05:29:34;;;;;;;;;1.25;0.25;;;;;;;;5048737;28;49690;-77
2023/03/25 05:31:59;;;;;;;;;1.00;0.75;;;;;;;;5048860;28;49718;-77
2023/03/25 05:34:24;;;;;;;;;1.00;1.00;;;;;;;;5048423;28;50204;-77
2023/03/25 05:36:49;;;;;;;;;0.75;0.75;;;;;;;;5048582;28;50502;-77
2023/03/25 05:39:15;;;;;;;;;0.00;0.00;;;;;;;;5048072;28;49835;-77
2023/03/25 05:41:40;;;;;;;;;3.00;0.75;;;;;;;;5048552;28;49806;-77
2023/03/25 05:44:06;;;;;;;;;2.00;0.50;;;;;;;;5047492;28;49671;-77
2023/03/25 05:46:31;;;;;;;;;2.75;2.75;;;;;;;;5048058;28;50093;-77
2023/03/25 05:48:59;;;;;;;;;0.00;0.00;;;;;;;;5031856;28;49637;-77
2023/03/25 05:51:25;;;;;;;;;2.75;1.00;;;;;;;;5033411;28;49983;-77
2023/03/25 05:53:50;;;;;;;;;1.25;1.25;;;;;;;;5033357;28;49637;-77
2023/03/25 05:56:19;;;;;;;;;1.75;1.75;;;;;;;;5050627;28;50810;-77
2023/03/25 05:58:45;;;;;;;;;0.00;0.00;;;;;;;;5051162;28;49860;-77
2023/03/25 06:01:12;;;;;;;;;1.00;1.00;;;;;;;;5050589;28;49864;-77
2023/03/25 06:03:38;;;;;;;;;4.00;0.50;;;;;;;;5051572;28;50085;-78
2023/03/25 06:06:04;;;;;;;;;1.00;1.00;;;;;;;;5051152;28;51192;-77
2023/03/25 06:08:30;;;;;;;;;1.00;1.00;;;;;;;;5032771;28;50093;-77
2023/03/25 06:10:59;;;;;;;;;0.00;0.00;;;;;;;;5051275;28;49782;-78
2023/03/25 06:13:24;;;;;;;;;0.75;0.75;;;;;;;;5051454;28;50096;-76
2023/03/25 06:15:55;;;;;;;;;0.00;0.00;;;;;;;;5051410;28;50642;-76
2023/03/25 06:18:23;;;;;;;;;1.00;1.00;;;;;;;;5032234;28;50079;-76
2023/03/25 06:20:50;;;;;;;;;2.00;1.00;;;;;;;;5051096;28;49882;-76
2023/03/25 06:23:15;;;;;;;;;0.00;0.00;;;;;;;;5034260;28;49926;-76
2023/03/25 06:25:40;;;;;;;;;0.00;0.00;;;;;;;;5050434;28;51034;-76
2023/03/25 06:28:06;;;;;;;;;2.00;1.50;;;;;;;;5051446;28;49772;-76
2023/03/25 06:30:31;;;;;;;;;2.25;1.00;;;;;;;;5051444;28;49912;-76
2023/03/25 06:32:58;;;;;;;;;2.50;0.75;;;;;;;;5051189;28;50022;-76
2023/03/25 06:35:23;;;;;;;;;2.00;2.00;;;;;;;;5049976;28;51088;-76
2023/03/25 06:37:48;;;;;;;;;1.00;1.00;;;;;;;;5049872;28;49803;-76
2023/03/25 06:40:14;;;;;;;;;0.75;0.00;;;;;;;;5051021;28;49677;-76
2023/03/25 06:42:40;;;;;;;;;0.75;0.75;;;;;;;;5051079;28;49752;-76
2023/03/25 06:45:06;;;;;;;;;4.50;1.00;;;;;;;;5046920;28;50476;-77
2023/03/25 06:47:32;;;;;;;;;0.25;0.00;;;;;;;;5032240;28;49890;-76
2023/03/25 06:49:57;;;;;;;;;0.50;0.50;;;;;;;;5050166;28;50246;-76
2023/03/25 06:52:22;;;;;;;;;0.00;0.00;;;;;;;;5041678;28;50060;-76
2023/03/25 06:54:47;;;;;;;;;1.75;0.75;;;;;;;;5012536;28;50249;-76
2023/03/25 06:57:13;;;;;;;;;1.75;1.50;;;;;;;;5046199;28;49642;-77
2023/03/25 06:59:38;;;;;;;;;4.00;1.75;;;;;;;;5032241;28;50045;-77
2023/03/25 07:02:03;;;;;;;;;0.00;0.00;;;;;;;;5032987;28;50117;-76
2023/03/25 07:04:28;;;;;;;;;2.75;1.00;;;;;;;;5049988;28;50877;-76
2023/03/25 07:06:54;;;;;;;;;1.00;1.00;;;;;;;;5050629;28;50030;-76
2023/03/25 07:09:19;;;;;;;;;1.00;0.00;;;;;;;;5043832;28;50082;-75
2023/03/25 07:11:44;;;;;;;;;2.20;0.00;;;;;;;;5050818;28;50045;-80
2023/03/25 07:14:09;;;;;;;;;0.75;0.75;;;;;;;;5050721;28;50268;-76
2023/03/25 07:16:35;;;;;;;;;4.25;2.50;;;;;;;;5050287;28;49811;-75
2023/03/25 07:19:00;;;;;;;;;0.00;0.00;;;;;;;;5049943;28;49917;-74
2023/03/25 07:21:25;;;;;;;;;1.75;0.50;;;;;;;;5050837;28;49994;-75
2023/03/25 07:23:51;;;;;;;;;1.25;1.25;;;;;;;;5050475;28;49644;-76
2023/03/25 07:26:16;;;;;;;;;1.00;1.00;;;;;;;;5050551;28;49719;-75
2023/03/25 07:28:41;;;;;;;;;1.50;0.00;;;;;;;;5050689;28;50075;-73
2023/03/25 07:31:07;;;;;;;;;2.00;0.50;;;;;;;;5032422;28;50051;-73
2023/03/25 07:33:32;;;;;;;;;1.00;1.00;;;;;;;;5031587;28;52846;-74
2023/03/25 07:35:58;;;;;;;;;2.50;0.50;;;;;;;;5050352;28;49977;-73
2023/03/25 07:38:23;;;;;;;;;2.25;1.00;;;;;;;;5049867;28;49732;-74
2023/03/25 07:40:48;;;;;;;;;1.00;1.00;;;;;;;;5050530;28;50426;-75
2023/03/25 07:43:13;;;;;;;;;0.00;0.00;;;;;;;;5050381;28;50209;-74
2023/03/25 07:45:38;;;;;;;;;1.50;0.00;;;;;;;;5050119;28;49594;-75
2023/03/25 07:48:03;;;;;;;;;2.25;2.00;;;;;;;;5032214;28;50208;-77
2023/03/25 07:50:29;;;;;;;;;1.50;1.00;;;;;;;;5048985;28;50383;-75
2023/03/25 07:52:54;;;;;;;;;1.00;1.00;;;;;;;;5049091;28;50315;-74
2023/03/25 07:55:20;;;;;;;;;1.25;1.25;;;;;;;;5048804;28;50032;-74
2023/03/25 07:57:45;;;;;;;;;0.50;0.50;;;;;;;;5050019;28;49966;-74
2023/03/25 08:00:10;;;;;;;;;1.50;0.00;;;;;;;;5041620;28;50069;-74
2023/03/25 08:02:36;;;;;;;;;1.00;1.00;;;;;;;;5028995;28;50553;-73
2023/03/25 08:05:01;;;;;;;;;0.50;0.50;;;;;;;;5048794;28;49868;-73
2023/03/25 08:07:27;;;;;;;;;4.75;0.00;;;;;;;;5049662;28;49764;-74
2023/03/25 08:09:52;;;;;;;;;0.75;0.75;;;;;;;;5049650;28;50023;-73
2023/03/25 08:12:17;;;;;;;;;0.00;0.00;;;;;;;;5046714;28;49834;-73
2023/03/25 08:14:42;;;;;;;;;2.25;1.00;;;;;;;;5043696;28;49745;-72
2023/03/25 08:17:07;;;;;;;;;1.00;0.25;;;;;;;;5033745;28;49963;-72
2023/03/25 08:19:33;;;;;;;;;2.00;2.00;;;;;;;;5032643;28;49742;-72
2023/03/25 08:21:58;;;;;;;;;1.50;1.25;;;;;;;;5030498;28;50208;-72
2023/03/25 08:24:25;;;;;;;;;1.75;1.00;;;;;;;;5040033;28;50213;-72
2023/03/25 08:26:51;;;;;;;;;0.75;0.75;;;;;;;;5038773;28;50204;-72
2023/03/25 08:29:16;;;;;;;;;1.50;0.25;;;;;;;;5034699;28;50532;-72
2023/03/25 08:31:45;;;;;;;;;3.00;0.00;;;;;;;;5042182;28;50666;-73
2023/03/25 08:34:10;;;;;;;;;0.25;0.25;;;;;;;;5015490;28;50260;-73
2023/03/25 08:36:38;;;;;;;;;2.25;2.25;;;;;;;;5044696;28;49883;-73
2023/03/25 08:39:07;;;;;;;;;2.25;0.25;;;;;;;;5040389;28;49944;-73
2023/03/25 08:41:32;;;;;;;;;3.25;0.75;;;;;;;;5027922;28;50278;-72
2023/03/25 08:43:57;;;;;;;;;1.50;1.50;;;;;;;;5034372;28;49808;-73
2023/03/25 08:46:22;;;;;;;;;2.50;1.00;;;;;;;;5028332;28;51289;-72
2023/03/25 08:48:48;;;;;;;;;2.75;1.00;;;;;;;;5033031;28;49723;-72
2023/03/25 08:51:13;;;;;;;;;1.00;1.00;;;;;;;;5030236;28;49744;-71
2023/03/25 08:53:38;;;;;;;;;1.00;1.00;;;;;;;;5030177;28;49776;-71
2023/03/25 08:56:04;;;;;;;;;2.00;0.50;;;;;;;;5040202;28;49987;-72
2023/03/25 08:58:29;;;;;;;;;3.75;1.50;;;;;;;;5027888;28;50117;-72
2023/03/25 09:00:55;;;;;;;;;1.25;1.00;;;;;;;;5035624;28;51526;-71
2023/03/25 09:03:22;;;;;;;;;1.50;1.25;;;;;;;;5040684;28;50247;-73
2023/03/25 09:05:47;;;;;;;;;2.50;1.25;;;;;;;;5031209;28;49750;-73
2023/03/25 09:08:12;;;;;;;;;1.00;1.00;;;;;;;;5037942;28;49704;-73
2023/03/25 09:10:38;;;;;;;;;1.00;1.00;;;;;;;;5026224;28;50455;-73
2023/03/25 09:13:03;;;;;;;;;1.25;1.00;;;;;;;;5027668;28;49725;-71
2023/03/25 09:15:28;;;;;;;;;0.50;0.00;;;;;;;;5027371;28;49883;-72
2023/03/25 09:17:53;;;;;;;;;1.75;1.00;;;;;;;;5028037;28;49983;-73
2023/03/25 09:20:19;;;;;;;;;0.00;0.00;;;;;;;;5030872;28;50841;-73
2023/03/25 09:22:44;;;;;;;;;2.25;1.50;;;;;;;;5027383;28;49774;-73
2023/03/25 09:25:09;;;;;;;;;0.00;0.00;;;;;;;;5009632;28;49661;-72
2023/03/25 09:27:35;;;;;;;;;2.00;1.00;;;;;;;;5027644;28;49979;-72
2023/03/25 09:30:00;;;;;;;;;0.75;0.00;;;;;;;;5030759;28;51389;-72
2023/03/25 09:32:25;;;;;;;;;1.50;1.00;;;;;;;;5028640;28;49770;-72
2023/03/25 09:34:51;;;;;;;;;1.00;1.00;;;;;;;;5039702;28;50127;-72
2023/03/25 09:37:16;;;;;;;;;0.00;0.00;;;;;;;;5042302;28;50249;-72
2023/03/25 09:39:41;;;;;;;;;4.00;1.00;;;;;;;;5043647;28;50272;-71
2023/03/25 09:42:22;;;;;;;;;1.75;1.75;;;;;;;;5043858;28;50196;-73
2023/03/25 09:45:06;;;;;;;;;0.00;0.00;;;;;;;;5042320;28;49981;-72
2023/03/25 09:47:33;;;;;;;;;1.00;1.00;;;;;;;;5043028;28;49808;-71
2023/03/25 09:49:59;;;;;;;;;1.00;0.00;;;;;;;;5043452;28;50513;-71
2023/03/25 09:52:32;;;;;;;;;1.50;0.50;;;;;;;;5042911;28;50023;-71
2023/03/25 09:55:07;;;;;;;;;3.25;1.00;;;;;;;;5047194;28;49804;-72
2023/03/25 09:57:36;;;;;;;;;0.50;0.00;;;;;;;;5035569;28;50018;-74
2023/03/25 10:00:03;;;;;;;;;4.00;1.00;;;;;;;;5040244;28;51050;-74
2023/03/25 10:02:28;;;;;;;;;1.00;1.00;;;;;;;;5043092;28;49830;-74
2023/03/25 10:04:53;;;;;;;;;1.80;0.60;;;;;;;;5045021;28;49910;-74
2023/03/25 10:07:33;;;;;;;;;1.00;1.00;;;;;;;;5044672;28;50565;-73
2023/03/25 10:10:01;;;;;;;;;0.00;0.00;;;;;;;;5039826;28;49952;-74
2023/03/25 10:12:45;;;;;;;;;0.25;0.25;;;;;;;;5045118;28;49867;-73
2023/03/25 10:15:32;;;;;;;;;2.00;0.50;;;;;;;;5040002;28;50047;-73
2023/03/25 10:18:04;;;;;;;;;1.00;1.00;;;;;;;;5027671;28;49731;-73
2023/03/25 10:20:48;;;;;;;;;0.50;0.50;;;;;;;;5028996;28;49768;-73
2023/03/25 10:23:20;;;;;;;;;2.00;1.00;;;;;;;;5027594;28;49659;-73
2023/03/25 10:25:48;;;;;;;;;1.50;0.00;;;;;;;;5027908;28;49813;-73
2023/03/25 10:28:27;;;;;;;;;0.00;0.00;;;;;;;;5027925;28;50056;-74
2023/03/25 10:30:53;;;;;;;;;0.00;0.00;;;;;;;;5027213;28;49950;-73
2023/03/25 10:33:50;;;;;;;;;1.25;1.25;;;;;;;;5027856;28;49744;-73
2023/03/25 10:36:18;;;;;;;;;0.00;0.00;;;;;;;;5022791;28;49812;-73
2023/03/25 10:38:45;;;;;;;;;0.00;0.00;;;;;;;;5031309;28;49623;-73
2023/03/25 10:41:18;;;;;;;;;0.75;0.75;;;;;;;;5031069;28;49718;-73
2023/03/25 10:43:43;;;;;;;;;1.25;1.25;;;;;;;;5030300;28;49710;-73
2023/03/25 10:46:23;;;;;;;;;1.00;1.00;;;;;;;;5031206;28;49769;-73
2023/03/25 10:48:49;;;;;;;;;0.00;0.00;;;;;;;;5031450;28;49951;-73
2023/03/25 10:51:17;;;;;;;;;0.00;0.00;;;;;;;;5030062;28;50754;-73
2023/03/25 10:53:45;;;;;;;;;1.00;1.00;;;;;;;;5030200;28;49792;-73
2023/03/25 10:56:12;;;;;;;;;1.00;1.00;;;;;;;;5031077;28;49988;-73
2023/03/25 10:58:39;;;;;;;;;2.50;1.00;;;;;;;;5030904;28;49603;-74
2023/03/25 11:01:16;;;;;;;;;1.00;0.00;;;;;;;;5030275;28;49982;-73
2023/03/25 11:03:42;;;;;;;;;2.25;2.00;;;;;;;;5030855;28;49779;-73
2023/03/25 11:06:16;;;;;;;;;0.00;0.00;;;;;;;;5030584;28;49821;-73
2023/03/25 11:09:08;;;;;;;;;1.00;0.00;;;;;;;;5013000;28;50205;-73
2023/03/25 11:11:34;;;;;;;;;0.75;0.00;;;;;;;;5030180;28;50989;-73
2023/03/25 11:14:01;;;;;;;;;1.00;0.00;;;;;;;;5030572;28;49783;-72
2023/03/25 11:16:30;;;;;;;;;1.00;0.00;;;;;;;;5050205;28;49716;-85
2023/03/25 11:18:59;;;;;;;;;2.50;1.00;;;;;;;;5051034;28;49869;-76
2023/03/25 11:21:24;;;;;;;;;2.00;0.00;;;;;;;;5049321;28;51067;-74
2023/03/25 11:23:50;;;;;;;;;2.00;1.00;;;;;;;;5042646;28;49950;-75
2023/03/25 11:26:23;;;;;;;;;0.50;0.50;;;;;;;;5042880;28;50205;-75
2023/03/25 11:28:50;;;;;;;;;0.50;0.25;;;;;;;;5047310;28;49743;-75
2023/03/25 11:31:17;;;;;;;;;1.00;1.00;;;;;;;;5047794;28;50126;-75
2023/03/25 11:33:44;;;;;;;;;5.00;1.75;;;;;;;;5049477;28;50260;-76
2023/03/25 11:36:29;;;;;;;;;1.00;1.00;;;;;;;;5048835;28;49875;-75
2023/03/25 11:38:56;;;;;;;;;0.75;0.75;;;;;;;;5047360;28;49992;-76
2023/03/25 11:41:22;;;;;;;;;3.00;1.75;;;;;;;;5049127;28;49944;-73
2023/03/25 11:43:48;;;;;;;;;1.00;1.00;;;;;;;;5049316;28;49843;-74
2023/03/25 11:46:15;;;;;;;;;2.25;1.25;;;;;;;;5033481;28;50134;-72
2023/03/25 11:48:41;;;;;;;;;3.00;1.75;;;;;;;;5050070;28;50168;-74
2023/03/25 11:51:10;;;;;;;;;3.75;2.50;;;;;;;;5048969;28;49974;-72
2023/03/25 11:53:35;;;;;;;;;0.75;0.75;;;;;;;;5049787;28;49642;-75
2023/03/25 11:56:06;;;;;;;;;1.50;1.00;;;;;;;;5048345;28;49918;-74
2023/03/25 11:58:33;;;;;;;;;1.25;0.50;;;;;;;;5048116;28;50298;-75
2023/03/25 12:01:00;;;;;;;;;1.50;1.50;;;;;;;;5049923;28;50233;-80
2023/03/25 12:03:26;;;;;;;;;0.00;0.00;;;;;;;;5050164;28;49699;-74
2023/03/25 12:06:06;;;;;;;;;1.00;1.00;;;;;;;;5048900;28;49669;-71
2023/03/25 12:08:48;;;;;;;;;0.00;0.00;;;;;;;;5049990;28;49687;-74
2023/03/25 12:11:17;;;;;;;;;1.00;1.00;;;;;;;;5049528;28;51420;-75
2023/03/25 12:14:01;;;;;;;;;2.50;1.75;;;;;;;;5049118;28;50178;-73
2023/03/25 12:16:36;;;;;;;;;0.00;0.00;;;;;;;;5049700;28;49903;-73
2023/03/25 12:19:04;;;;;;;;;1.00;1.00;;;;;;;;5049944;28;49873;-76
2023/03/25 12:21:47;;;;;;;;;1.00;1.00;;;;;;;;5049060;28;50540;-76
2023/03/25 12:24:21;;;;;;;;;1.00;1.00;;;;;;;;5046487;28;50095;-78
2023/03/25 12:26:46;;;;;;;;;2.00;0.00;;;;;;;;5047837;28;49844;-70
2023/03/25 12:29:23;;;;;;;;;2.50;1.25;;;;;;;;5049425;28;49992;-77
2023/03/25 12:32:05;;;;;;;;;2.00;0.75;;;;;;;;5049625;28;50654;-73
2023/03/25 12:34:56;;;;;;;;;1.00;0.00;;;;;;;;5048690;28;49726;-77
2023/03/25 12:37:22;;;;;;;;;1.00;0.00;;;;;;;;5017595;28;49692;-72
2023/03/25 12:39:53;;;;;;;;;1.00;1.00;;;;;;;;5045089;28;49662;-71
2023/03/25 12:42:19;;;;;;;;;0.00;0.00;;;;;;;;5043438;28;51587;-71
2023/03/25 12:45:04;;;;;;;;;2.50;1.50;;;;;;;;5049415;28;50022;-77
2023/03/25 12:47:41;;;;;;;;;2.00;2.00;;;;;;;;5038855;28;49827;-72
2023/03/25 12:50:13;;;;;;;;;0.25;0.00;;;;;;;;5029173;28;50003;-72
2023/03/25 12:52:55;;;;;;;;;1.00;0.75;;;;;;;;5029219;28;51171;-72
2023/03/25 12:55:31;;;;;;;;;2.00;0.75;;;;;;;;5029149;28;49783;-72
2023/03/25 12:58:15;;;;;;;;;2.00;0.25;;;;;;;;5028612;28;49864;-72
2023/03/25 13:00:58;;;;;;;;;1.00;0.00;;;;;;;;5029101;28;49695;-73
2023/03/25 13:03:24;;;;;;;;;3.00;3.00;;;;;;;;5028324;28;50013;-72
2023/03/25 13:06:00;;;;;;;;;0.60;0.60;;;;;;;;5028916;28;50106;-73
2023/03/25 13:09:01;;;;;;;;;2.00;2.00;;;;;;;;5029222;28;49731;-74
2023/03/25 13:11:29;;;;;;;;;0.75;0.25;;;;;;;;4969531;28;50311;-72
2023/03/25 13:13:57;;;;;;;;;0.50;0.00;;;;;;;;4978537;28;50880;-73
2023/03/25 13:16:26;;;;;;;;;0.00;0.00;;;;;;;;4978313;28;49991;-72
2023/03/25 13:19:00;;;;;;;;;0.00;0.00;;;;;;;;4964537;28;49857;-73
2023/03/25 13:21:27;;;;;;;;;2.00;1.00;;;;;;;;4978164;28;49835;-73
2023/03/25 13:23:59;;;;;;;;;1.00;1.00;;;;;;;;4976007;28;52667;-73
2023/03/25 13:26:28;;;;;;;;;1.75;1.75;;;;;;;;4979434;28;50871;-72
2023/03/25 13:28:57;;;;;;;;;5.00;1.00;;;;;;;;4980253;28;50165;-73
2023/03/25 13:31:26;;;;;;;;;0.75;0.75;;;;;;;;4986114;28;49747;-73
2023/03/25 13:34:04;;;;;;;;;0.25;0.25;;;;;;;;4985710;28;50154;-73
2023/03/25 13:36:41;;;;;;;;;1.25;1.00;;;;;;;;4986035;28;49770;-73
2023/03/25 13:39:16;;;;;;;;;3.00;2.00;;;;;;;;4983780;28;49829;-72
2023/03/25 13:41:52;;;;;;;;;1.75;1.00;;;;;;;;4985254;28;50105;-73
2023/03/25 13:44:19;;;;;;;;;0.50;0.50;;;;;;;;4979207;28;50101;-72
2023/03/25 13:46:59;;;;;;;;;1.00;1.00;;;;;;;;5041680;28;51871;-73
2023/03/25 13:49:36;;;;;;;;;1.00;1.00;;;;;;;;5041564;28;49891;-73
2023/03/25 13:52:02;;;;;;;;;0.00;0.00;;;;;;;;5043320;28;49867;-73
2023/03/25 13:54:32;;;;;;;;;2.00;2.00;;;;;;;;5041097;28;49948;-73
2023/03/25 13:57:09;;;;;;;;;1.50;0.00;;;;;;;;5042333;28;49841;-72
2023/03/25 13:59:46;;;;;;;;;1.00;1.00;;;;;;;;5040152;28;49782;-74
2023/03/25 14:02:27;;;;;;;;;3.25;2.50;;;;;;;;5045907;28;49763;-74
2023/03/25 14:05:21;;;;;;;;;2.50;0.00;;;;;;;;5044206;28;51222;-73
2023/03/25 14:08:17;;;;;;;;;1.50;1.50;;;;;;;;5028824;28;49955;-74
2023/03/25 14:10:49;;;;;;;;;1.00;1.00;;;;;;;;5031241;28;49876;-74
2023/03/25 14:13:24;;;;;;;;;0.50;0.25;;;;;;;;5040610;28;50012;-74
2023/03/25 14:15:56;;;;;;;;;2.00;1.75;;;;;;;;5045392;28;50308;-74
2023/03/25 14:18:21;;;;;;;;;1.00;0.50;;;;;;;;5012521;28;49880;-74
2023/03/25 14:20:47;;;;;;;;;3.25;1.00;;;;;;;;5042519;28;51018;-74
2023/03/25 14:23:17;;;;;;;;;1.00;0.50;;;;;;;;5047600;28;50144;-74
2023/03/25 14:25:45;;;;;;;;;1.75;1.00;;;;;;;;5046280;28;49998;-74
2023/03/25 14:28:30;;;;;;;;;1.00;1.00;;;;;;;;5043437;28;50283;-73
2023/03/25 14:31:05;;;;;;;;;2.50;1.00;;;;;;;;5044131;28;50089;-73
2023/03/25 14:33:50;;;;;;;;;2.50;1.00;;;;;;;;5046072;28;50164;-73
2023/03/25 14:36:15;;;;;;;;;2.75;2.75;;;;;;;;5046228;28;50504;-73
2023/03/25 14:38:51;;;;;;;;;1.25;1.25;;;;;;;;5050909;28;49725;-73
2023/03/25 14:41:36;;;;;;;;;1.00;1.00;;;;;;;;5044929;28;49936;-73
2023/03/25 14:44:18;;;;;;;;;3.25;1.00;;;;;;;;5042879;28;50038;-73
2023/03/25 14:46:45;;;;;;;;;0.50;0.00;;;;;;;;5045301;28;51658;-72
2023/03/25 14:49:18;;;;;;;;;2.75;0.75;;;;;;;;5047727;28;49745;-73
2023/03/25 14:51:45;;;;;;;;;0.75;0.75;;;;;;;;5045143;28;50111;-72
2023/03/25 14:54:29;;;;;;;;;0.00;0.00;;;;;;;;5047602;28;49981;-73
2023/03/25 14:57:05;;;;;;;;;0.75;0.00;;;;;;;;5049483;28;50810;-73